sensor_id;sensor_type;location;lat;lon;timestamp;P1;durP1;ratioP1;P2;durP2;ratioP2
28605;SDS011;46498;49.968;7.754;2023-04-12T00:04:13;8.18;;;2.37;;
28605;SDS011;46498;49.968;7.754;2023-04-12T00:09:15;11.03;;;2.73;;
28605;SDS011;46498;49.968;7.754;2023-04-12T00:14:16;12.65;;;2.37;;
28605;SDS011;46498;49.968;7.754;2023-04-12T00:19:17;11.15;;;2.22;;
28605;SDS011;46498;49.968;7.754;2023-04-12T00:24:18;15.57;;;2.10;;
28605;SDS011;46498;49.968;7.754;2023-04-12T00:29:19;12.68;;;1.92;;
28605;SDS011;46498;49.968;7.754;2023-04-12T00:34:21;10.70;;;1.70;;
28605;SDS011;46498;49.968;7.754;2023-04-12T00:39:22;9.68;;;1.85;;
28605;SDS011;46498;49.968;7.754;2023-04-12T00:44:23;9.50;;;2.03;;
28605;SDS011;46498;49.968;7.754;2023-04-12T00:49:24;18.58;;;2.20;;
28605;SDS011;46498;49.968;7.754;2023-04-12T00:54:30;11.73;;;2.25;;
28605;SDS011;46498;49.968;7.754;2023-04-12T00:59:32;11.00;;;3.15;;
28605;SDS011;46498;49.968;7.754;2023-04-12T01:04:33;13.50;;;2.33;;
28605;SDS011;46498;49.968;7.754;2023-04-12T01:10:13;12.48;;;2.50;;
28605;SDS011;46498;49.968;7.754;2023-04-12T01:15:28;10.27;;;1.62;;
28605;SDS011;46498;49.968;7.754;2023-04-12T01:20:36;10.95;;;2.22;;
28605;SDS011;46498;49.968;7.754;2023-04-12T01:26:08;8.18;;;1.80;;
28605;SDS011;46498;49.968;7.754;2023-04-12T01:31:21;12.05;;;2.53;;
28605;SDS011;46498;49.968;7.754;2023-04-12T01:36:25;9.73;;;2.15;;
28605;SDS011;46498;49.968;7.754;2023-04-12T01:41:27;12.30;;;2.37;;
28605;SDS011;46498;49.968;7.754;2023-04-12T01:46:28;8.70;;;2.75;;
28605;SDS011;46498;49.968;7.754;2023-04-12T01:57:20;16.27;;;2.62;;
28605;SDS011;46498;49.968;7.754;2023-04-12T02:02:23;14.07;;;2.85;;
28605;SDS011;46498;49.968;7.754;2023-04-12T02:07:25;13.85;;;2.67;;
28605;SDS011;46498;49.968;7.754;2023-04-12T02:12:26;15.55;;;3.00;;
28605;SDS011;46498;49.968;7.754;2023-04-12T02:17:29;8.75;;;2.65;;
28605;SDS011;46498;49.968;7.754;2023-04-12T02:22:30;12.93;;;2.37;;
28605;SDS011;46498;49.968;7.754;2023-04-12T02:27:31;11.05;;;3.20;;
28605;SDS011;46498;49.968;7.754;2023-04-12T02:32:32;14.60;;;3.00;;
28605;SDS011;46498;49.968;7.754;2023-04-12T02:37:47;16.08;;;3.10;;
28605;SDS011;46498;49.968;7.754;2023-04-12T02:42:48;10.80;;;3.12;;
28605;SDS011;46498;49.968;7.754;2023-04-12T02:47:49;10.43;;;3.30;;
28605;SDS011;46498;49.968;7.754;2023-04-12T02:52:51;12.05;;;2.92;;
28605;SDS011;46498;49.968;7.754;2023-04-12T02:57:53;10.85;;;3.20;;
28605;SDS011;46498;49.968;7.754;2023-04-12T03:02:55;14.48;;;3.28;;
28605;SDS011;46498;49.968;7.754;2023-04-12T03:08:01;9.27;;;3.30;;
28605;SDS011;46498;49.968;7.754;2023-04-12T03:13:10;10.93;;;3.08;;
28605;SDS011;46498;49.968;7.754;2023-04-12T03:18:15;14.87;;;3.20;;
28605;SDS011;46498;49.968;7.754;2023-04-12T03:23:19;11.18;;;2.60;;
28605;SDS011;46498;49.968;7.754;2023-04-12T03:28:24;12.60;;;3.30;;
28605;SDS011;46498;49.968;7.754;2023-04-12T03:33:26;11.02;;;3.10;;
28605;SDS011;46498;49.968;7.754;2023-04-12T03:38:32;18.17;;;3.70;;
28605;SDS011;46498;49.968;7.754;2023-04-12T03:43:33;16.23;;;3.60;;
28605;SDS011;46498;49.968;7.754;2023-04-12T03:48:40;11.30;;;3.50;;
28605;SDS011;46498;49.968;7.754;2023-04-12T03:53:42;20.77;;;3.78;;
28605;SDS011;46498;49.968;7.754;2023-04-12T03:58:47;11.57;;;3.65;;
28605;SDS011;46498;49.968;7.754;2023-04-12T04:03:49;18.10;;;3.60;;
28605;SDS011;46498;49.968;7.754;2023-04-12T04:08:54;12.25;;;3.85;;
28605;SDS011;46498;49.968;7.754;2023-04-12T04:14:00;13.55;;;4.22;;
28605;SDS011;46498;49.968;7.754;2023-04-12T04:19:01;14.27;;;4.60;;
28605;SDS011;46498;49.968;7.754;2023-04-12T04:24:02;19.92;;;5.80;;
28605;SDS011;46498;49.968;7.754;2023-04-12T04:29:08;12.37;;;4.87;;
28605;SDS011;46498;49.968;7.754;2023-04-12T04:34:12;17.20;;;6.32;;
28605;SDS011;46498;49.968;7.754;2023-04-12T04:39:18;14.32;;;5.65;;
28605;SDS011;46498;49.968;7.754;2023-04-12T04:44:19;36.83;;;5.43;;
28605;SDS011;46498;49.968;7.754;2023-04-12T04:49:26;160.73;;;10.60;;
28605;SDS011;46498;49.968;7.754;2023-04-12T04:54:28;338.98;;;16.35;;
28605;SDS011;46498;49.968;7.754;2023-04-12T04:59:30;250.80;;;14.52;;
28605;SDS011;46498;49.968;7.754;2023-04-12T05:04:45;96.55;;;9.48;;
28605;SDS011;46498;49.968;7.754;2023-04-12T05:09:48;15.30;;;6.78;;
28605;SDS011;46498;49.968;7.754;2023-04-12T05:14:49;42.42;;;8.05;;
28605;SDS011;46498;49.968;7.754;2023-04-12T05:19:52;159.60;;;13.27;;
28605;SDS011;46498;49.968;7.754;2023-04-12T05:24:53;262.12;;;16.45;;
28605;SDS011;46498;49.968;7.754;2023-04-12T05:29:56;17.53;;;6.93;;
28605;SDS011;46498;49.968;7.754;2023-04-12T05:34:57;16.60;;;7.07;;
28605;SDS011;46498;49.968;7.754;2023-04-12T05:39:59;78.68;;;9.80;;
28605;SDS011;46498;49.968;7.754;2023-04-12T05:45:00;18.42;;;8.20;;
28605;SDS011;46498;49.968;7.754;2023-04-12T05:50:01;22.08;;;8.10;;
28605;SDS011;46498;49.968;7.754;2023-04-12T05:55:03;16.87;;;7.28;;
28605;SDS011;46498;49.968;7.754;2023-04-12T06:00:06;16.40;;;7.25;;
28605;SDS011;46498;49.968;7.754;2023-04-12T06:05:17;146.98;;;12.73;;
28605;SDS011;46498;49.968;7.754;2023-04-12T06:10:19;27.17;;;8.68;;
28605;SDS011;46498;49.968;7.754;2023-04-12T06:15:24;17.70;;;8.50;;
28605;SDS011;46498;49.968;7.754;2023-04-12T06:20:33;14.23;;;6.75;;
28605;SDS011;46498;49.968;7.754;2023-04-12T06:25:48;13.10;;;6.35;;
28605;SDS011;46498;49.968;7.754;2023-04-12T06:30:50;16.37;;;7.10;;
28605;SDS011;46498;49.968;7.754;2023-04-12T06:35:51;16.00;;;6.95;;
28605;SDS011;46498;49.968;7.754;2023-04-12T06:40:52;13.55;;;7.12;;
28605;SDS011;46498;49.968;7.754;2023-04-12T06:45:53;14.35;;;6.43;;
28605;SDS011;46498;49.968;7.754;2023-04-12T06:50:56;19.20;;;7.25;;
28605;SDS011;46498;49.968;7.754;2023-04-12T06:55:57;27.77;;;6.95;;
28605;SDS011;46498;49.968;7.754;2023-04-12T07:01:04;34.25;;;8.07;;
28605;SDS011;46498;49.968;7.754;2023-04-12T07:06:06;15.48;;;7.22;;
28605;SDS011;46498;49.968;7.754;2023-04-12T07:11:24;13.35;;;6.00;;
28605;SDS011;46498;49.968;7.754;2023-04-12T07:16:26;10.48;;;5.50;;
28605;SDS011;46498;49.968;7.754;2023-04-12T07:21:27;14.20;;;5.35;;
28605;SDS011;46498;49.968;7.754;2023-04-12T07:26:28;11.20;;;5.85;;
28605;SDS011;46498;49.968;7.754;2023-04-12T07:31:30;7.55;;;4.55;;
28605;SDS011;46498;49.968;7.754;2023-04-12T07:36:31;12.52;;;5.97;;
28605;SDS011;46498;49.968;7.754;2023-04-12T07:41:32;10.48;;;5.18;;
28605;SDS011;46498;49.968;7.754;2023-04-12T07:46:33;18.52;;;5.80;;
28605;SDS011;46498;49.968;7.754;2023-04-12T07:51:34;12.35;;;5.28;;
28605;SDS011;46498;49.968;7.754;2023-04-12T07:56:35;10.32;;;4.90;;
28605;SDS011;46498;49.968;7.754;2023-04-12T08:01:36;11.00;;;4.40;;
28605;SDS011;46498;49.968;7.754;2023-04-12T08:06:36;6.85;;;3.90;;
28605;SDS011;46498;49.968;7.754;2023-04-12T08:11:37;6.28;;;3.67;;
28605;SDS011;46498;49.968;7.754;2023-04-12T08:16:38;8.70;;;3.47;;
28605;SDS011;46498;49.968;7.754;2023-04-12T08:21:39;5.70;;;3.62;;
28605;SDS011;46498;49.968;7.754;2023-04-12T08:26:40;6.18;;;3.80;;
28605;SDS011;46498;49.968;7.754;2023-04-12T08:31:41;10.27;;;3.92;;
28605;SDS011;46498;49.968;7.754;2023-04-12T08:36:42;8.32;;;4.60;;
28605;SDS011;46498;49.968;7.754;2023-04-12T08:41:43;8.85;;;4.85;;
28605;SDS011;46498;49.968;7.754;2023-04-12T08:46:44;8.27;;;3.53;;
28605;SDS011;46498;49.968;7.754;2023-04-12T08:51:46;6.37;;;3.28;;
28605;SDS011;46498;49.968;7.754;2023-04-12T08:56:48;7.40;;;4.18;;
28605;SDS011;46498;49.968;7.754;2023-04-12T09:01:49;6.60;;;3.10;;
28605;SDS011;46498;49.968;7.754;2023-04-12T09:06:51;7.20;;;3.65;;
28605;SDS011;46498;49.968;7.754;2023-04-12T09:11:52;7.37;;;3.47;;
28605;SDS011;46498;49.968;7.754;2023-04-12T09:17:22;7.65;;;4.15;;
28605;SDS011;46498;49.968;7.754;2023-04-12T09:22:34;6.00;;;3.00;;
28605;SDS011;46498;49.968;7.754;2023-04-12T09:27:49;7.75;;;3.70;;
28605;SDS011;46498;49.968;7.754;2023-04-12T09:32:51;8.25;;;3.85;;
28605;SDS011;46498;49.968;7.754;2023-04-12T09:37:56;4.97;;;3.00;;
28605;SDS011;46498;49.968;7.754;2023-04-12T09:43:06;8.88;;;4.72;;
28605;SDS011;46498;49.968;7.754;2023-04-12T09:48:08;5.82;;;3.25;;
28605;SDS011;46498;49.968;7.754;2023-04-12T09:53:18;8.52;;;3.97;;
28605;SDS011;46498;49.968;7.754;2023-04-12T09:58:19;7.22;;;4.47;;
28605;SDS011;46498;49.968;7.754;2023-04-12T10:03:21;4.87;;;2.72;;
28605;SDS011;46498;49.968;7.754;2023-04-12T10:08:22;9.77;;;3.65;;
28605;SDS011;46498;49.968;7.754;2023-04-12T10:13:23;11.15;;;5.62;;
28605;SDS011;46498;49.968;7.754;2023-04-12T10:18:26;7.15;;;3.70;;
28605;SDS011;46498;49.968;7.754;2023-04-12T10:23:29;6.47;;;3.47;;
28605;SDS011;46498;49.968;7.754;2023-04-12T10:28:32;9.77;;;5.05;;
28605;SDS011;46498;49.968;7.754;2023-04-12T10:33:33;8.13;;;3.85;;
28605;SDS011;46498;49.968;7.754;2023-04-12T10:38:44;6.68;;;2.55;;
28605;SDS011;46498;49.968;7.754;2023-04-12T10:43:50;13.40;;;6.60;;
28605;SDS011;46498;49.968;7.754;2023-04-12T10:48:52;3.80;;;2.25;;
28605;SDS011;46498;49.968;7.754;2023-04-12T11:07:16;6.43;;;2.85;;
28605;SDS011;46498;49.968;7.754;2023-04-12T11:12:38;6.72;;;3.75;;
28605;SDS011;46498;49.968;7.754;2023-04-12T11:17:40;7.12;;;2.47;;
28605;SDS011;46498;49.968;7.754;2023-04-12T11:22:41;7.43;;;2.92;;
28605;SDS011;46498;49.968;7.754;2023-04-12T11:27:49;2.50;;;1.17;;
28605;SDS011;46498;49.968;7.754;2023-04-12T11:32:52;2.33;;;1.67;;
28605;SDS011;46498;49.968;7.754;2023-04-12T11:37:53;5.03;;;2.25;;
28605;SDS011;46498;49.968;7.754;2023-04-12T11:42:57;7.50;;;2.75;;
28605;SDS011;46498;49.968;7.754;2023-04-12T11:47:59;1.15;;;0.90;;
28605;SDS011;46498;49.968;7.754;2023-04-12T11:53:10;0.60;;;0.50;;
28605;SDS011;46498;49.968;7.754;2023-04-12T12:03:14;2.25;;;0.60;;
28605;SDS011;46498;49.968;7.754;2023-04-12T12:08:16;1.92;;;0.60;;
28605;SDS011;46498;49.968;7.754;2023-04-12T12:13:18;0.50;;;0.40;;
28605;SDS011;46498;49.968;7.754;2023-04-12T12:18:23;2.28;;;1.08;;
28605;SDS011;46498;49.968;7.754;2023-04-12T12:23:29;4.93;;;1.90;;
28605;SDS011;46498;49.968;7.754;2023-04-12T12:28:37;10.25;;;5.15;;
28605;SDS011;46498;49.968;7.754;2023-04-12T12:33:39;7.85;;;1.90;;
28605;SDS011;46498;49.968;7.754;2023-04-12T12:38:47;2.40;;;1.10;;
28605;SDS011;46498;49.968;7.754;2023-04-12T12:43:52;1.10;;;0.60;;
28605;SDS011;46498;49.968;7.754;2023-04-12T12:48:53;1.08;;;0.47;;
28605;SDS011;46498;49.968;7.754;2023-04-12T12:53:54;1.90;;;0.77;;
28605;SDS011;46498;49.968;7.754;2023-04-12T12:58:55;1.73;;;0.50;;
28605;SDS011;46498;49.968;7.754;2023-04-12T13:03:56;0.70;;;0.37;;
28605;SDS011;46498;49.968;7.754;2023-04-12T13:08:58;0.90;;;0.50;;
28605;SDS011;46498;49.968;7.754;2023-04-12T13:13:59;1.33;;;0.40;;
28605;SDS011;46498;49.968;7.754;2023-04-12T13:19:00;1.00;;;0.40;;
28605;SDS011;46498;49.968;7.754;2023-04-12T13:24:01;2.53;;;1.30;;
28605;SDS011;46498;49.968;7.754;2023-04-12T13:29:02;7.12;;;3.22;;
28605;SDS011;46498;49.968;7.754;2023-04-12T13:34:03;2.20;;;1.52;;
28605;SDS011;46498;49.968;7.754;2023-04-12T13:39:04;1.27;;;0.40;;
28605;SDS011;46498;49.968;7.754;2023-04-12T13:44:05;0.70;;;0.30;;
28605;SDS011;46498;49.968;7.754;2023-04-12T13:49:06;1.42;;;0.60;;
28605;SDS011;46498;49.968;7.754;2023-04-12T13:54:07;0.90;;;0.43;;
28605;SDS011;46498;49.968;7.754;2023-04-12T13:59:08;0.73;;;0.30;;
28605;SDS011;46498;49.968;7.754;2023-04-12T14:04:09;0.60;;;0.32;;
28605;SDS011;46498;49.968;7.754;2023-04-12T14:09:25;1.02;;;0.45;;
28605;SDS011;46498;49.968;7.754;2023-04-12T14:14:27;1.87;;;0.90;;
28605;SDS011;46498;49.968;7.754;2023-04-12T14:19:28;1.48;;;0.80;;
28605;SDS011;46498;49.968;7.754;2023-04-12T14:24:29;4.03;;;1.75;;
28605;SDS011;46498;49.968;7.754;2023-04-12T14:29:30;3.70;;;1.70;;
28605;SDS011;46498;49.968;7.754;2023-04-12T14:34:31;3.95;;;0.70;;
28605;SDS011;46498;49.968;7.754;2023-04-12T14:39:33;1.10;;;0.40;;
28605;SDS011;46498;49.968;7.754;2023-04-12T14:44:35;2.78;;;0.75;;
28605;SDS011;46498;49.968;7.754;2023-04-12T14:49:36;2.72;;;0.30;;
28605;SDS011;46498;49.968;7.754;2023-04-12T14:54:37;10.75;;;5.12;;
28605;SDS011;46498;49.968;7.754;2023-04-12T14:59:38;0.75;;;0.40;;
28605;SDS011;46498;49.968;7.754;2023-04-12T15:04:39;1.40;;;0.32;;
28605;SDS011;46498;49.968;7.754;2023-04-12T15:09:40;1.27;;;0.40;;
28605;SDS011;46498;49.968;7.754;2023-04-12T15:19:44;2.15;;;0.30;;
28605;SDS011;46498;49.968;7.754;2023-04-12T15:24:45;1.05;;;0.30;;
28605;SDS011;46498;49.968;7.754;2023-04-12T15:29:46;0.40;;;0.30;;
28605;SDS011;46498;49.968;7.754;2023-04-12T15:34:49;2.33;;;0.33;;
28605;SDS011;46498;49.968;7.754;2023-04-12T15:39:50;0.82;;;0.50;;
28605;SDS011;46498;49.968;7.754;2023-04-12T15:44:51;4.12;;;1.60;;
28605;SDS011;46498;49.968;7.754;2023-04-12T15:49:52;0.90;;;0.32;;
28605;SDS011;46498;49.968;7.754;2023-04-12T15:54:53;2.53;;;0.47;;
28605;SDS011;46498;49.968;7.754;2023-04-12T15:59:55;2.35;;;0.60;;
28605;SDS011;46498;49.968;7.754;2023-04-12T16:04:58;1.33;;;0.25;;
28605;SDS011;46498;49.968;7.754;2023-04-12T16:10:00;3.72;;;0.50;;
28605;SDS011;46498;49.968;7.754;2023-04-12T16:15:03;2.28;;;0.93;;
28605;SDS011;46498;49.968;7.754;2023-04-12T16:20:04;2.78;;;1.35;;
28605;SDS011;46498;49.968;7.754;2023-04-12T16:25:06;3.03;;;0.70;;
28605;SDS011;46498;49.968;7.754;2023-04-12T16:30:08;2.25;;;0.73;;
28605;SDS011;46498;49.968;7.754;2023-04-12T16:35:12;4.60;;;0.55;;
28605;SDS011;46498;49.968;7.754;2023-04-12T16:40:14;3.47;;;0.60;;
28605;SDS011;46498;49.968;7.754;2023-04-12T16:45:16;1.97;;;0.60;;
28605;SDS011;46498;49.968;7.754;2023-04-12T16:50:17;4.18;;;0.57;;
28605;SDS011;46498;49.968;7.754;2023-04-12T16:55:18;4.35;;;0.50;;
28605;SDS011;46498;49.968;7.754;2023-04-12T17:00:19;3.08;;;0.60;;
28605;SDS011;46498;49.968;7.754;2023-04-12T17:05:21;6.03;;;0.60;;
28605;SDS011;46498;49.968;7.754;2023-04-12T17:10:24;4.70;;;0.50;;
28605;SDS011;46498;49.968;7.754;2023-04-12T17:15:25;3.10;;;0.57;;
28605;SDS011;46498;49.968;7.754;2023-04-12T17:20:27;3.70;;;0.82;;
28605;SDS011;46498;49.968;7.754;2023-04-12T17:25:28;3.00;;;0.50;;
28605;SDS011;46498;49.968;7.754;2023-04-12T17:30:30;2.47;;;0.73;;
28605;SDS011;46498;49.968;7.754;2023-04-12T17:35:31;3.37;;;1.02;;
28605;SDS011;46498;49.968;7.754;2023-04-12T17:40:33;3.62;;;1.12;;
28605;SDS011;46498;49.968;7.754;2023-04-12T17:45:34;4.45;;;2.58;;
28605;SDS011;46498;49.968;7.754;2023-04-12T17:50:35;24.48;;;10.52;;
28605;SDS011;46498;49.968;7.754;2023-04-12T17:55:36;8.40;;;3.30;;
28605;SDS011;46498;49.968;7.754;2023-04-12T18:00:38;1.95;;;0.88;;
28605;SDS011;46498;49.968;7.754;2023-04-12T18:05:39;11.02;;;4.97;;
28605;SDS011;46498;49.968;7.754;2023-04-12T18:10:40;21.50;;;8.23;;
28605;SDS011;46498;49.968;7.754;2023-04-12T18:15:41;14.05;;;7.10;;
28605;SDS011;46498;49.968;7.754;2023-04-12T18:20:42;27.37;;;11.18;;
28605;SDS011;46498;49.968;7.754;2023-04-12T18:25:43;14.90;;;5.30;;
28605;SDS011;46498;49.968;7.754;2023-04-12T18:30:44;20.30;;;8.27;;
28605;SDS011;46498;49.968;7.754;2023-04-12T18:35:45;10.40;;;4.50;;
28605;SDS011;46498;49.968;7.754;2023-04-12T18:40:47;24.63;;;8.93;;
28605;SDS011;46498;49.968;7.754;2023-04-12T18:45:47;3.28;;;1.20;;
28605;SDS011;46498;49.968;7.754;2023-04-12T18:50:48;21.62;;;6.97;;
28605;SDS011;46498;49.968;7.754;2023-04-12T18:55:49;6.12;;;2.00;;
28605;SDS011;46498;49.968;7.754;2023-04-12T19:00:50;12.63;;;4.95;;
28605;SDS011;46498;49.968;7.754;2023-04-12T19:05:54;7.25;;;2.20;;
28605;SDS011;46498;49.968;7.754;2023-04-12T19:10:55;5.07;;;1.77;;
28605;SDS011;46498;49.968;7.754;2023-04-12T19:15:56;1.05;;;0.30;;
28605;SDS011;46498;49.968;7.754;2023-04-12T19:20:58;0.55;;;0.28;;
28605;SDS011;46498;49.968;7.754;2023-04-12T19:25:59;2.10;;;0.50;;
28605;SDS011;46498;49.968;7.754;2023-04-12T19:31:02;1.73;;;0.77;;
28605;SDS011;46498;49.968;7.754;2023-04-12T19:36:10;1.77;;;0.60;;
28605;SDS011;46498;49.968;7.754;2023-04-12T19:41:12;4.82;;;1.10;;
28605;SDS011;46498;49.968;7.754;2023-04-12T19:46:13;1.33;;;0.47;;
28605;SDS011;46498;49.968;7.754;2023-04-12T19:51:14;1.48;;;0.37;;
28605;SDS011;46498;49.968;7.754;2023-04-12T19:56:15;0.88;;;0.35;;
28605;SDS011;46498;49.968;7.754;2023-04-12T20:01:16;1.85;;;0.50;;
28605;SDS011;46498;49.968;7.754;2023-04-12T20:06:17;4.62;;;0.95;;
28605;SDS011;46498;49.968;7.754;2023-04-12T20:11:18;8.02;;;3.58;;
28605;SDS011;46498;49.968;7.754;2023-04-12T20:16:20;2.33;;;0.75;;
28605;SDS011;46498;49.968;7.754;2023-04-12T20:21:23;3.22;;;1.60;;
28605;SDS011;46498;49.968;7.754;2023-04-12T20:26:24;21.80;;;12.75;;
28605;SDS011;46498;49.968;7.754;2023-04-12T20:31:31;4.97;;;1.67;;
28605;SDS011;46498;49.968;7.754;2023-04-12T20:36:32;1.25;;;0.30;;
28605;SDS011;46498;49.968;7.754;2023-04-12T20:41:33;2.97;;;0.40;;
28605;SDS011;46498;49.968;7.754;2023-04-12T20:46:37;1.65;;;0.60;;
28605;SDS011;46498;49.968;7.754;2023-04-12T20:51:39;0.90;;;0.30;;
28605;SDS011;46498;49.968;7.754;2023-04-12T20:56:40;1.55;;;0.45;;
28605;SDS011;46498;49.968;7.754;2023-04-12T21:01:41;2.10;;;0.60;;
28605;SDS011;46498;49.968;7.754;2023-04-12T21:06:45;3.42;;;0.73;;
28605;SDS011;46498;49.968;7.754;2023-04-12T21:11:48;3.85;;;0.60;;
28605;SDS011;46498;49.968;7.754;2023-04-12T21:16:50;2.97;;;0.70;;
28605;SDS011;46498;49.968;7.754;2023-04-12T21:21:51;4.45;;;1.40;;
28605;SDS011;46498;49.968;7.754;2023-04-12T21:26:53;1.92;;;0.65;;
28605;SDS011;46498;49.968;7.754;2023-04-12T21:31:57;1.33;;;0.52;;
28605;SDS011;46498;49.968;7.754;2023-04-12T21:36:58;3.67;;;0.80;;
28605;SDS011;46498;49.968;7.754;2023-04-12T21:42:01;0.93;;;0.50;;
28605;SDS011;46498;49.968;7.754;2023-04-12T21:47:02;3.12;;;0.32;;
28605;SDS011;46498;49.968;7.754;2023-04-12T21:52:03;1.55;;;0.60;;
28605;SDS011;46498;49.968;7.754;2023-04-12T21:57:04;1.58;;;0.50;;
28605;SDS011;46498;49.968;7.754;2023-04-12T22:02:06;6.50;;;1.42;;
28605;SDS011;46498;49.968;7.754;2023-04-12T22:07:07;2.97;;;0.50;;
28605;SDS011;46498;49.968;7.754;2023-04-12T22:12:12;1.20;;;0.50;;
28605;SDS011;46498;49.968;7.754;2023-04-12T22:17:12;10.88;;;3.85;;
28605;SDS011;46498;49.968;7.754;2023-04-12T22:22:14;4.75;;;1.33;;
28605;SDS011;46498;49.968;7.754;2023-04-12T22:27:15;24.70;;;8.00;;
28605;SDS011;46498;49.968;7.754;2023-04-12T22:32:16;7.65;;;3.12;;
28605;SDS011;46498;49.968;7.754;2023-04-12T22:37:17;6.32;;;0.80;;
28605;SDS011;46498;49.968;7.754;2023-04-12T22:42:18;2.85;;;1.10;;
28605;SDS011;46498;49.968;7.754;2023-04-12T22:47:19;7.72;;;1.80;;
28605;SDS011;46498;49.968;7.754;2023-04-12T22:52:20;2.12;;;0.90;;
28605;SDS011;46498;49.968;7.754;2023-04-12T22:57:21;2.30;;;1.00;;
28605;SDS011;46498;49.968;7.754;2023-04-12T23:02:23;5.50;;;1.55;;
28605;SDS011;46498;49.968;7.754;2023-04-12T23:07:24;3.92;;;0.85;;
28605;SDS011;46498;49.968;7.754;2023-04-12T23:12:26;2.12;;;0.55;;
28605;SDS011;46498;49.968;7.754;2023-04-12T23:17:27;4.30;;;1.10;;
28605;SDS011;46498;49.968;7.754;2023-04-12T23:22:28;3.92;;;0.93;;
28605;SDS011;46498;49.968;7.754;2023-04-12T23:27:55;6.68;;;0.70;;
28605;SDS011;46498;49.968;7.754;2023-04-12T23:32:56;3.92;;;0.73;;
28605;SDS011;46498;49.968;7.754;2023-04-12T23:37:57;1.70;;;0.70;;
28605;SDS011;46498;49.968;7.754;2023-04-12T23:42:58;4.50;;;0.80;;
28605;SDS011;46498;49.968;7.754;2023-04-12T23:47:59;4.10;;;0.85;;
28605;SDS011;46498;49.968;7.754;2023-04-12T23:53:00;3.40;;;0.57;;
28605;SDS011;46498;49.968;7.754;2023-04-12T23:58:01;4.43;;;0.88;;
